»·PEaware :: DAL213 KPSP-KLAS

DAL213 :: KPSP-KLAS

FLIGHT INFORMATION

Flight Status: Arrived
Operator:
Delta Air Lines
More flights by this operator :: More flights under this callsign
Pilot: Nico L. (9332)
Aircraft: BOEING 737-800
(B738)
More flights by this aircraft type
Origin: KPSP Palm Springs Intl
United States
Destination: KLAS McCarran Intl
United States
More flights between these airports :: More routes between these airports
Route: +CATH1 PSP TNP KEPEC6
File this flight plan on PilotEdge
Remarks: Live Streaming on Twitch "DAL213" and YT
Altitude:
(Current/Filed)
17,000ft
Speed:
(Current/Filed)
400kts
Departed: 25-Apr-19 07:35 PM
Arrived: 25-Apr-19 08:14 PM
Distance/Time
Traveled:
151nm/0:39
Distance/Time
To Go:
Arrived

Flight Plot

Page will automatically refresh every two minutes.

Flight plan parsing failed; only flown route is shown


Map Options




Map Legend


Flown Route
Filed Route
Departure Airport
Arrival Airport
Navaid (VOR, NDB)
Fix

Horizontal Profiles

Position Reports

Time Latitude Longitude Heading Altitude Ground
Speed
25-Apr-19 19:19 33.823418 -116.505900 245 486ft 0kts
25-Apr-19 19:20 33.823418 -116.505900 245 486ft 0kts
25-Apr-19 19:22 33.823418 -116.505900 245 486ft 0kts
25-Apr-19 19:23 33.823418 -116.505900 245 486ft 0kts
25-Apr-19 19:24 33.823418 -116.505900 245 486ft 0kts
25-Apr-19 19:25 33.823418 -116.505900 245 486ft 0kts
25-Apr-19 19:26 33.823418 -116.505900 245 486ft 0kts
25-Apr-19 19:27 33.823552 -116.505627 228 486ft 2kts
25-Apr-19 19:28 33.823985 -116.505345 189 486ft 0kts
25-Apr-19 19:29 33.823985 -116.505345 189 486ft 0kts
25-Apr-19 19:30 33.823985 -116.505345 189 486ft 0kts
25-Apr-19 19:31 33.823829 -116.505350 171 486ft 8kts
25-Apr-19 19:32 33.821563 -116.502509 143 486ft 10kts
25-Apr-19 19:33 33.818519 -116.499297 90 486ft 12kts
25-Apr-19 19:34 33.818580 -116.498451 71 486ft 17kts
25-Apr-19 19:35 33.840215 -116.516800 322 943ft 162kts
25-Apr-19 19:36 33.881069 -116.552761 320 2954ft 210kts
25-Apr-19 19:37 33.940928 -116.552498 52 4885ft 278kts
25-Apr-19 19:38 33.924377 -116.471292 147 7782ft 283kts
25-Apr-19 19:39 33.859502 -116.414817 122 10523ft 308kts
25-Apr-19 19:40 33.821052 -116.312159 104 12596ft 354kts
25-Apr-19 19:40 33.845203 -116.219762 54 14880ft 369kts
25-Apr-19 19:42 33.917255 -116.098071 54 16990ft 400kts
25-Apr-19 19:43 33.982891 -115.987843 54 17025ft 405kts
25-Apr-19 19:43 34.037565 -115.895893 54 17045ft 405kts
25-Apr-19 19:44 34.103163 -115.785320 53 17067ft 405kts
25-Apr-19 19:46 34.197491 -115.674303 42 17030ft 405kts
25-Apr-19 19:46 34.266060 -115.597016 42 16998ft 405kts
25-Apr-19 19:47 34.356929 -115.517945 21 17013ft 405kts
25-Apr-19 19:48 34.462548 -115.470590 19 17013ft 405kts
25-Apr-19 19:49 34.570102 -115.434278 354 17003ft 404kts
25-Apr-19 19:50 34.680935 -115.457595 348 16996ft 403kts
25-Apr-19 19:51 34.791211 -115.481953 349 16983ft 403kts
25-Apr-19 19:52 34.901775 -115.506444 348 16976ft 403kts
25-Apr-19 19:53 35.012062 -115.530936 348 16958ft 403kts
25-Apr-19 19:54 35.122181 -115.555457 348 16984ft 402kts
25-Apr-19 19:55 35.232642 -115.580126 348 17008ft 402kts
25-Apr-19 19:56 35.342514 -115.604728 348 17012ft 401kts
25-Apr-19 19:57 35.452307 -115.629382 348 17020ft 401kts
25-Apr-19 19:58 35.559143 -115.653433 348 15128ft 362kts
25-Apr-19 19:59 35.652661 -115.669731 6 13742ft 321kts
25-Apr-19 20:00 35.706222 -115.597473 72 12723ft 309kts
25-Apr-19 20:01 35.732871 -115.499353 72 11436ft 299kts
25-Apr-19 20:02 35.760897 -115.402900 67 9979ft 295kts
25-Apr-19 20:03 35.791950 -115.311183 69 8488ft 284kts
25-Apr-19 20:04 35.836206 -115.239804 19 7500ft 258kts
25-Apr-19 20:05 35.904205 -115.216371 15 6380ft 247kts
25-Apr-19 20:06 35.967180 -115.195043 13 5567ft 218kts
25-Apr-19 20:07 36.016938 -115.162946 53 4398ft 202kts
25-Apr-19 20:08 36.048247 -115.112366 55 3474ft 177kts
25-Apr-19 20:09 36.080759 -115.074232 12 3376ft 150kts
25-Apr-19 20:10 36.119184 -115.087215 307 3037ft 150kts
25-Apr-19 20:11 36.122541 -115.133157 234 2613ft 142kts
25-Apr-19 20:12 36.090274 -115.158322 206 2190ft 110kts
25-Apr-19 20:13 36.083253 -115.161274 172 2190ft 9kts
25-Apr-19 20:14 36.085321 -115.158858 26 2190ft 14kts
25-Apr-19 20:15 36.087616 -115.156001 89 2190ft 11kts
25-Apr-19 20:16 36.087577 -115.152280 168 2190ft 6kts
25-Apr-19 20:17 36.087098 -115.152714 221 2190ft 0kts
25-Apr-19 20:18 36.087098 -115.152714 221 2190ft 0kts
25-Apr-19 20:19 36.087098 -115.152714 221 2190ft 0kts
25-Apr-19 20:20 36.087098 -115.152714 221 2190ft 0kts
25-Apr-19 20:21 36.087098 -115.152714 221 2190ft 0kts
25-Apr-19 20:22 36.087098 -115.152714 221 2190ft 0kts
25-Apr-19 20:23 36.087098 -115.152714 221 2190ft 0kts
25-Apr-19 20:24 36.087098 -115.152714 221 2190ft 0kts
25-Apr-19 20:25 36.087098 -115.152714 221 2190ft 0kts
25-Apr-19 20:26 36.087098 -115.152714 221 2190ft 0kts
25-Apr-19 20:27 36.087098 -115.152714 221 2190ft 0kts

Navigation Log

Ident Type
Flight plan parsing failed, navigation log unavailable